createdAt,value
2018-07-19T00:00:12.680Z,0.00
2018-07-19T00:01:12.672Z,0.00
2018-07-19T00:02:12.662Z,0.00
2018-07-19T00:03:12.654Z,0.00
2018-07-19T00:04:12.650Z,0.00
2018-07-19T00:05:12.641Z,0.00
2018-07-19T00:06:12.635Z,0.00
2018-07-19T00:07:12.628Z,0.00
2018-07-19T00:08:12.647Z,0.00
2018-07-19T00:09:12.609Z,0.00
2018-07-19T00:10:12.600Z,0.00
2018-07-19T00:11:12.592Z,0.00
2018-07-19T00:12:12.586Z,0.00
2018-07-19T00:13:12.581Z,0.00
2018-07-19T00:14:12.569Z,0.00
2018-07-19T00:15:12.560Z,0.00
2018-07-19T00:16:12.554Z,0.00
2018-07-19T00:17:12.546Z,0.00
2018-07-19T00:18:12.536Z,0.00
2018-07-19T00:19:12.533Z,0.00
2018-07-19T00:20:12.522Z,0.00
2018-07-19T00:21:12.513Z,0.00
2018-07-19T00:22:12.504Z,0.00
2018-07-19T00:23:12.498Z,0.00
2018-07-19T00:24:12.496Z,0.00
2018-07-19T00:25:12.483Z,0.00
2018-07-19T00:26:12.475Z,0.00
2018-07-19T00:27:12.468Z,0.00
2018-07-19T00:28:12.458Z,0.00
2018-07-19T00:29:12.654Z,0.00
2018-07-19T00:30:12.441Z,0.00
2018-07-19T00:31:12.434Z,0.00
2018-07-19T00:32:12.434Z,0.00
2018-07-19T00:33:12.420Z,0.00
2018-07-19T00:34:12.410Z,0.00
2018-07-19T00:35:12.410Z,0.00
2018-07-19T00:36:12.398Z,0.00
2018-07-19T00:37:12.385Z,0.00
2018-07-19T00:38:12.375Z,0.00
2018-07-19T00:39:12.368Z,0.00
2018-07-19T00:40:12.360Z,0.00
2018-07-19T00:41:12.353Z,0.00
2018-07-19T00:42:12.349Z,0.00
2018-07-19T00:43:12.336Z,0.00
2018-07-19T00:44:12.333Z,0.00
2018-07-19T00:45:12.322Z,0.00
2018-07-19T00:46:12.319Z,0.00
2018-07-19T00:47:12.308Z,0.00
2018-07-19T00:48:12.296Z,0.00
2018-07-19T00:49:12.289Z,0.00
2018-07-19T00:50:12.277Z,0.00
2018-07-19T00:51:12.268Z,0.00
2018-07-19T00:52:12.268Z,0.00
2018-07-19T00:53:12.259Z,0.00
2018-07-19T00:54:12.245Z,0.00
2018-07-19T00:55:12.237Z,0.00
2018-07-19T00:56:12.229Z,0.00
2018-07-19T00:57:12.228Z,0.00
2018-07-19T00:58:12.215Z,0.00
2018-07-19T00:59:12.205Z,0.00
2018-07-19T01:00:12.198Z,0.00
2018-07-19T01:01:12.186Z,0.00
2018-07-19T01:02:12.176Z,0.00
2018-07-19T01:03:12.175Z,0.00
2018-07-19T01:04:12.163Z,0.00
2018-07-19T01:05:12.162Z,0.00
2018-07-19T01:06:12.142Z,0.00
2018-07-19T01:07:12.135Z,0.00
2018-07-19T01:08:12.131Z,0.00
2018-07-19T01:09:12.122Z,0.00
2018-07-19T01:10:12.112Z,0.00
2018-07-19T01:11:12.101Z,0.00
2018-07-19T01:12:12.093Z,0.00
2018-07-19T01:13:12.093Z,0.00
2018-07-19T01:14:12.075Z,0.00
2018-07-19T01:15:12.072Z,0.00
2018-07-19T01:16:12.065Z,0.00
2018-07-19T01:17:12.050Z,0.00
2018-07-19T01:18:12.041Z,0.00
2018-07-19T01:19:12.033Z,0.00
2018-07-19T01:20:12.024Z,0.00
2018-07-19T01:21:12.022Z,0.00
2018-07-19T01:22:12.009Z,0.00
2018-07-19T01:23:12.009Z,0.00
2018-07-19T01:24:11.991Z,0.00
2018-07-19T01:25:11.984Z,0.00
2018-07-19T01:26:11.974Z,0.00
2018-07-19T01:27:11.972Z,0.00
2018-07-19T01:28:11.958Z,0.00
2018-07-19T01:29:11.947Z,0.00
2018-07-19T01:30:11.946Z,0.00
2018-07-19T01:31:11.930Z,0.00
2018-07-19T01:32:11.927Z,0.00
2018-07-19T01:33:11.920Z,0.00
2018-07-19T01:34:11.911Z,0.00
2018-07-19T01:35:11.895Z,0.00
2018-07-19T01:36:11.892Z,0.00
2018-07-19T01:37:11.882Z,0.00
2018-07-19T01:38:11.868Z,0.00
2018-07-19T01:39:11.868Z,0.00
2018-07-19T01:40:11.854Z,0.00
2018-07-19T01:41:11.842Z,0.00
2018-07-19T01:42:11.835Z,0.00
2018-07-19T01:43:11.828Z,0.00
2018-07-19T01:44:11.816Z,0.00
2018-07-19T01:45:11.816Z,0.00
2018-07-19T01:46:11.796Z,0.00
2018-07-19T01:47:11.788Z,0.00
2018-07-19T01:48:11.779Z,0.00
2018-07-19T01:49:11.774Z,0.00
2018-07-19T01:50:11.768Z,0.00
2018-07-19T01:51:11.762Z,0.00
2018-07-19T01:52:11.750Z,0.00
2018-07-19T01:53:11.739Z,0.00
2018-07-19T01:54:11.727Z,0.00
2018-07-19T01:55:11.726Z,0.00
2018-07-19T01:56:11.716Z,0.00
2018-07-19T01:57:11.702Z,0.00
2018-07-19T01:58:11.696Z,0.00
2018-07-19T01:59:11.684Z,0.00
2018-07-19T02:00:11.762Z,0.00
2018-07-19T02:01:11.671Z,0.00
2018-07-19T02:02:11.659Z,0.00
2018-07-19T02:03:11.856Z,0.00
2018-07-19T02:04:11.643Z,0.00
2018-07-19T02:05:11.628Z,0.00
2018-07-19T02:06:11.625Z,0.00
2018-07-19T02:07:11.611Z,0.00
2018-07-19T02:08:11.607Z,0.00
2018-07-19T02:09:11.594Z,0.00
2018-07-19T02:10:11.590Z,0.00
2018-07-19T02:11:11.582Z,0.00
2018-07-19T02:12:11.572Z,0.00
2018-07-19T02:13:11.556Z,0.00
2018-07-19T02:14:11.545Z,0.00
2018-07-19T02:15:11.545Z,0.00
2018-07-19T02:16:11.535Z,0.00
2018-07-19T02:17:11.518Z,0.00
2018-07-19T02:18:11.513Z,0.00
2018-07-19T02:19:11.499Z,0.00
2018-07-19T02:20:11.500Z,0.00
2018-07-19T02:21:11.485Z,0.00
2018-07-19T02:22:11.471Z,0.00
2018-07-19T02:23:11.470Z,0.00
2018-07-19T02:24:11.459Z,0.00
2018-07-19T02:25:11.447Z,0.00
2018-07-19T02:26:11.436Z,0.00
2018-07-19T02:27:11.425Z,0.00
2018-07-19T02:28:11.424Z,0.00
2018-07-19T02:29:11.609Z,0.00
2018-07-19T02:30:11.403Z,0.00
2018-07-19T02:31:11.396Z,0.00
2018-07-19T02:32:11.379Z,0.00
2018-07-19T02:33:11.379Z,0.00
2018-07-19T02:34:11.362Z,0.00
2018-07-19T02:35:11.354Z,0.00
2018-07-19T02:36:11.353Z,0.00
2018-07-19T02:37:11.338Z,0.00
2018-07-19T02:38:11.328Z,0.00
2018-07-19T02:39:11.315Z,0.00
2018-07-19T02:40:11.306Z,0.00
2018-07-19T02:41:11.303Z,0.00
2018-07-19T02:42:11.291Z,0.00
2018-07-19T02:43:11.276Z,0.00
2018-07-19T02:44:11.272Z,0.00
2018-07-19T02:45:11.258Z,0.00
2018-07-19T02:46:11.256Z,0.00
2018-07-19T02:47:11.239Z,0.00
2018-07-19T02:48:11.229Z,0.00
2018-07-19T02:49:11.230Z,0.00
2018-07-19T02:50:11.210Z,0.00
2018-07-19T02:51:11.201Z,0.00
2018-07-19T02:52:11.197Z,0.00
2018-07-19T02:53:11.391Z,0.00
2018-07-19T02:54:11.173Z,0.00
2018-07-19T02:55:11.171Z,0.00
2018-07-19T02:56:11.160Z,0.00
2018-07-19T02:57:11.153Z,0.00
2018-07-19T02:58:11.136Z,0.00
2018-07-19T02:59:11.327Z,0.00
2018-07-19T03:00:11.121Z,0.00
2018-07-19T03:01:11.108Z,0.00
2018-07-19T03:02:11.141Z,0.00
2018-07-19T03:03:11.088Z,0.00
2018-07-19T03:04:11.078Z,0.00
2018-07-19T03:05:11.078Z,0.00
2018-07-19T03:06:11.059Z,0.00
2018-07-19T03:07:11.049Z,0.00
2018-07-19T03:08:11.047Z,0.00
2018-07-19T03:09:11.036Z,0.00
2018-07-19T03:10:11.030Z,0.00
2018-07-19T03:11:11.015Z,0.00
2018-07-19T03:12:11.006Z,0.00
2018-07-19T03:13:10.993Z,0.00
2018-07-19T03:14:10.987Z,0.00
2018-07-19T03:15:10.982Z,0.00
2018-07-19T03:16:10.971Z,0.00
2018-07-19T03:17:10.960Z,0.00
2018-07-19T03:18:10.946Z,0.00
2018-07-19T03:19:10.934Z,0.00
2018-07-19T03:20:10.926Z,0.00
2018-07-19T03:21:10.918Z,0.00
2018-07-19T03:22:10.909Z,0.00
2018-07-19T03:23:10.906Z,0.00
2018-07-19T03:24:10.889Z,0.00
2018-07-19T03:25:10.880Z,0.00
2018-07-19T03:26:10.870Z,0.00
2018-07-19T03:27:10.865Z,0.00
2018-07-19T03:28:10.854Z,0.00
2018-07-19T03:29:10.846Z,0.00
2018-07-19T03:30:10.836Z,0.00
2018-07-19T03:31:10.911Z,0.00
2018-07-19T03:32:10.819Z,0.00
2018-07-19T03:33:10.806Z,0.00
2018-07-19T03:34:10.792Z,0.00
2018-07-19T03:35:10.990Z,0.00
2018-07-19T03:36:10.780Z,0.00
2018-07-19T03:37:10.765Z,0.00
2018-07-19T03:38:10.758Z,0.00
2018-07-19T03:39:10.745Z,0.00
2018-07-19T03:40:10.780Z,0.00
2018-07-19T03:41:10.726Z,0.00
2018-07-19T03:42:10.727Z,0.00
2018-07-19T03:43:10.709Z,0.00
2018-07-19T03:44:10.697Z,0.00
2018-07-19T03:45:10.694Z,0.00
2018-07-19T03:46:10.678Z,0.00
2018-07-19T03:47:10.666Z,0.00
2018-07-19T03:48:10.656Z,0.00
2018-07-19T03:49:10.657Z,0.00
2018-07-19T03:50:10.637Z,0.00
2018-07-19T03:51:10.628Z,0.00
2018-07-19T03:52:10.619Z,0.00
2018-07-19T03:53:10.607Z,0.00
2018-07-19T03:54:10.600Z,0.00
2018-07-19T03:55:10.594Z,0.00
2018-07-19T03:56:10.579Z,0.00
2018-07-19T03:57:10.571Z,0.00
2018-07-19T03:58:10.563Z,0.00
2018-07-19T03:59:10.748Z,0.00
2018-07-19T04:00:10.539Z,0.00
2018-07-19T04:01:10.537Z,0.00
2018-07-19T04:02:10.518Z,0.00
2018-07-19T04:03:10.510Z,0.00
2018-07-19T04:04:10.505Z,0.00
2018-07-19T04:05:10.490Z,0.00
2018-07-19T04:06:10.481Z,0.00
2018-07-19T04:07:10.478Z,0.00
2018-07-19T04:08:10.460Z,0.00
2018-07-19T04:09:10.450Z,0.00
2018-07-19T04:10:10.440Z,0.00
2018-07-19T04:11:10.434Z,0.00
2018-07-19T04:12:10.426Z,0.00
2018-07-19T04:13:10.420Z,0.00
2018-07-19T04:14:10.408Z,0.00
2018-07-19T04:15:10.390Z,0.00
2018-07-19T04:16:10.380Z,0.00
2018-07-19T04:17:10.440Z,0.00
2018-07-19T04:18:10.365Z,0.00
2018-07-19T04:19:10.350Z,0.00
2018-07-19T04:20:10.343Z,0.00
2018-07-19T04:21:10.330Z,0.00
2018-07-19T04:22:10.325Z,0.00
2018-07-19T04:23:10.511Z,0.00
2018-07-19T04:24:10.302Z,0.00
2018-07-19T04:25:10.339Z,0.00
2018-07-19T04:26:10.282Z,0.00
2018-07-19T04:27:10.273Z,0.00
2018-07-19T04:28:10.261Z,0.00
2018-07-19T04:29:10.451Z,0.00
2018-07-19T04:30:10.240Z,0.00
2018-07-19T04:31:10.234Z,0.00
2018-07-19T04:32:10.232Z,0.00
2018-07-19T04:33:10.210Z,0.00
2018-07-19T04:34:10.199Z,0.00
2018-07-19T04:35:10.192Z,0.00
2018-07-19T04:36:10.180Z,0.00
2018-07-19T04:37:10.169Z,0.00
2018-07-19T04:38:10.174Z,0.00
2018-07-19T04:39:10.150Z,0.00
2018-07-19T04:40:10.142Z,0.00
2018-07-19T04:41:10.130Z,0.00
2018-07-19T04:42:10.119Z,0.00
2018-07-19T04:43:10.111Z,0.00
2018-07-19T04:44:10.101Z,0.00
2018-07-19T04:45:10.090Z,0.00
2018-07-19T04:46:10.078Z,0.00
2018-07-19T04:47:10.269Z,0.00
2018-07-19T04:48:10.101Z,0.00
2018-07-19T04:49:10.048Z,0.00
2018-07-19T04:50:10.039Z,0.00
2018-07-19T04:51:10.028Z,0.00
2018-07-19T04:52:10.018Z,0.00
2018-07-19T04:53:10.007Z,0.00
2018-07-19T04:54:09.998Z,0.00
2018-07-19T04:55:09.986Z,0.00
2018-07-19T04:56:09.977Z,0.00
2018-07-19T04:57:09.976Z,0.00
2018-07-19T04:58:09.957Z,0.00
2018-07-19T04:59:09.947Z,0.00
2018-07-19T05:00:09.936Z,0.00
2018-07-19T05:01:09.926Z,0.00
2018-07-19T05:02:09.923Z,0.00
2018-07-19T05:03:09.907Z,0.00
2018-07-19T05:04:09.896Z,0.00
2018-07-19T05:05:09.889Z,0.00
2018-07-19T05:06:09.875Z,0.00
2018-07-19T05:07:09.864Z,0.00
2018-07-19T05:08:09.855Z,0.00
2018-07-19T05:09:09.845Z,0.00
2018-07-19T05:10:09.834Z,0.00
2018-07-19T05:11:09.823Z,0.00
2018-07-19T05:12:09.816Z,0.00
2018-07-19T05:13:09.805Z,0.00
2018-07-19T05:14:09.799Z,0.00
2018-07-19T05:15:09.783Z,0.00
2018-07-19T05:16:09.773Z,0.00
2018-07-19T05:17:09.764Z,0.00
2018-07-19T05:18:09.757Z,0.00
2018-07-19T05:19:09.742Z,0.00
2018-07-19T05:20:09.732Z,0.00
2018-07-19T05:21:09.722Z,0.00
2018-07-19T05:22:09.715Z,0.00
2018-07-19T05:23:09.718Z,0.00
2018-07-19T05:24:09.692Z,0.00
2018-07-19T05:25:09.681Z,0.00
2018-07-19T05:26:09.670Z,0.00
2018-07-19T05:27:09.661Z,0.00
2018-07-19T05:28:09.650Z,0.00
2018-07-19T05:29:09.640Z,0.00
2018-07-19T05:30:09.629Z,0.00
2018-07-19T05:31:09.618Z,0.00
2018-07-19T05:32:09.612Z,0.00
2018-07-19T05:33:09.598Z,0.00
2018-07-19T05:34:09.591Z,0.00
2018-07-19T05:35:09.577Z,0.00
2018-07-19T05:36:09.567Z,0.00
2018-07-19T05:37:09.557Z,0.00
2018-07-19T05:38:09.546Z,0.00
2018-07-19T05:39:09.538Z,0.00
2018-07-19T05:40:09.532Z,0.00
2018-07-19T05:41:09.520Z,0.00
2018-07-19T05:42:09.515Z,0.00
2018-07-19T05:43:09.497Z,0.00
2018-07-19T05:44:09.484Z,0.00
2018-07-19T05:45:09.473Z,0.00
2018-07-19T05:46:09.464Z,0.00
2018-07-19T05:47:09.453Z,0.00
2018-07-19T05:48:09.442Z,0.00
2018-07-19T05:49:09.432Z,0.00
2018-07-19T05:50:09.428Z,0.00
2018-07-19T05:51:09.412Z,0.00
2018-07-19T05:52:09.400Z,0.00
2018-07-19T05:53:09.590Z,0.00
2018-07-19T05:54:09.378Z,0.00
2018-07-19T05:55:09.368Z,0.00
2018-07-19T05:56:09.358Z,0.00
2018-07-19T05:57:09.347Z,0.00
2018-07-19T05:58:09.375Z,0.00
2018-07-19T05:59:09.325Z,0.00
2018-07-19T06:00:09.316Z,0.00
2018-07-19T06:01:09.305Z,0.00
2018-07-19T06:02:09.294Z,0.00
2018-07-19T06:03:09.285Z,0.00
2018-07-19T06:04:09.276Z,0.00
2018-07-19T06:05:09.263Z,0.00
2018-07-19T06:06:09.256Z,0.00
2018-07-19T06:07:09.241Z,0.00
2018-07-19T06:08:09.235Z,0.00
2018-07-19T06:09:09.220Z,0.00
2018-07-19T06:10:09.209Z,0.00
2018-07-19T06:11:09.200Z,0.00
2018-07-19T06:12:09.188Z,0.00
2018-07-19T06:13:09.179Z,0.00
2018-07-19T06:14:09.168Z,0.00
2018-07-19T06:15:09.156Z,0.00
2018-07-19T06:16:09.197Z,0.00
2018-07-19T06:17:09.137Z,0.00
2018-07-19T06:18:09.124Z,0.00
2018-07-19T06:19:09.114Z,0.00
2018-07-19T06:20:09.103Z,0.00
2018-07-19T06:21:09.092Z,0.00
2018-07-19T06:22:09.085Z,0.00
2018-07-19T06:23:09.072Z,0.00
2018-07-19T06:24:09.061Z,0.00
2018-07-19T06:25:09.051Z,0.00
2018-07-19T06:26:09.042Z,0.00
2018-07-19T06:27:09.029Z,0.00
2018-07-19T06:28:09.018Z,0.00
2018-07-19T06:29:09.008Z,0.00
2018-07-19T06:30:08.997Z,0.00
2018-07-19T06:31:08.987Z,0.00
2018-07-19T06:32:08.976Z,0.00
2018-07-19T06:33:08.967Z,0.00
2018-07-19T06:34:08.955Z,0.00
2018-07-19T06:35:08.945Z,0.00
2018-07-19T06:36:08.934Z,0.00
2018-07-19T06:37:08.924Z,0.00
2018-07-19T06:38:08.912Z,0.00
2018-07-19T06:39:08.902Z,0.00
2018-07-19T06:40:08.891Z,0.00
2018-07-19T06:41:08.894Z,0.00
2018-07-19T06:42:08.871Z,0.00
2018-07-19T06:43:08.859Z,0.00
2018-07-19T06:44:08.848Z,0.00
2018-07-19T06:45:08.839Z,0.00
2018-07-19T06:46:08.826Z,0.00
2018-07-19T06:47:08.817Z,0.00
2018-07-19T06:48:08.804Z,0.00
2018-07-19T06:49:08.794Z,0.00
2018-07-19T06:50:08.783Z,0.00
2018-07-19T06:51:08.774Z,0.00
2018-07-19T06:52:08.762Z,0.00
2018-07-19T06:53:08.751Z,0.00
2018-07-19T06:54:08.741Z,0.00
2018-07-19T06:55:08.729Z,0.00
2018-07-19T06:56:08.719Z,0.00
2018-07-19T06:57:08.708Z,0.00
2018-07-19T06:58:08.699Z,0.00
2018-07-19T06:59:08.886Z,0.00
2018-07-19T07:00:08.676Z,0.00
2018-07-19T07:01:08.665Z,0.00
2018-07-19T07:02:08.653Z,0.00
2018-07-19T07:03:08.642Z,0.00
2018-07-19T07:04:08.631Z,0.00
2018-07-19T07:05:08.624Z,0.00
2018-07-19T07:06:08.609Z,0.00
2018-07-19T07:07:08.598Z,0.00
2018-07-19T07:08:08.588Z,0.00
2018-07-19T07:09:08.577Z,0.00
2018-07-19T07:10:08.566Z,0.00
2018-07-19T07:11:08.555Z,0.00
2018-07-19T07:12:08.544Z,0.00
2018-07-19T07:13:08.533Z,0.00
2018-07-19T07:14:08.522Z,0.00
2018-07-19T07:15:08.511Z,0.00
2018-07-19T07:16:08.503Z,0.00
2018-07-19T07:17:08.490Z,0.00
2018-07-19T07:18:08.482Z,0.00
2018-07-19T07:19:08.470Z,0.00
2018-07-19T07:20:08.456Z,0.00
2018-07-19T07:21:08.482Z,0.00
2018-07-19T07:22:08.435Z,0.00
2018-07-19T07:23:08.423Z,0.00
2018-07-19T07:24:08.413Z,0.00
2018-07-19T07:25:08.402Z,0.00
2018-07-19T07:26:08.391Z,0.00
2018-07-19T07:27:08.380Z,0.00
2018-07-19T07:28:08.383Z,0.00
2018-07-19T07:29:08.358Z,0.00
2018-07-19T07:30:08.348Z,0.00
2018-07-19T07:31:08.336Z,0.00
2018-07-19T07:32:08.325Z,0.00
2018-07-19T07:33:08.314Z,0.00
2018-07-19T07:34:08.332Z,0.00
2018-07-19T07:35:08.292Z,0.00
2018-07-19T07:36:08.281Z,0.00
2018-07-19T07:37:08.271Z,0.00
2018-07-19T07:38:08.258Z,0.00
2018-07-19T07:39:08.248Z,0.00
2018-07-19T07:40:08.238Z,0.00
2018-07-19T07:41:08.229Z,0.00
2018-07-19T07:42:08.215Z,0.00
2018-07-19T07:43:08.204Z,0.00
2018-07-19T07:44:08.235Z,0.00
2018-07-19T07:45:08.183Z,0.00
2018-07-19T07:46:08.171Z,0.00
2018-07-19T07:47:08.163Z,0.00
2018-07-19T07:48:08.150Z,0.00
2018-07-19T07:49:08.141Z,0.00
2018-07-19T07:50:08.127Z,0.00
2018-07-19T07:51:08.116Z,0.00
2018-07-19T07:52:08.105Z,0.00
2018-07-19T07:53:08.097Z,0.00
2018-07-19T07:54:08.085Z,0.00
2018-07-19T07:55:08.075Z,0.00
2018-07-19T07:56:08.062Z,0.00
2018-07-19T07:57:08.051Z,0.00
2018-07-19T07:58:08.040Z,0.00
2018-07-19T07:59:08.029Z,0.00
2018-07-19T08:00:08.018Z,0.00
2018-07-19T08:01:08.010Z,0.00
2018-07-19T08:02:07.995Z,0.00
2018-07-19T08:03:07.984Z,0.00
2018-07-19T08:04:07.974Z,0.00
2018-07-19T08:05:07.963Z,0.00
2018-07-19T08:06:07.953Z,0.00
2018-07-19T08:07:07.940Z,0.00
2018-07-19T08:08:07.930Z,0.00
2018-07-19T08:09:07.924Z,0.00
2018-07-19T08:10:07.908Z,0.00
2018-07-19T08:11:08.097Z,0.00
2018-07-19T08:12:07.885Z,0.00
2018-07-19T08:13:07.875Z,0.00
2018-07-19T08:14:07.863Z,0.00
2018-07-19T08:15:07.856Z,0.00
2018-07-19T08:16:07.844Z,0.00
2018-07-19T08:17:07.832Z,0.00
2018-07-19T08:18:07.820Z,0.00
2018-07-19T08:19:07.809Z,0.00
2018-07-19T08:20:07.798Z,0.00
2018-07-19T08:21:07.787Z,0.00
2018-07-19T08:22:07.776Z,0.00
2018-07-19T08:23:07.965Z,0.00
2018-07-19T08:24:07.754Z,0.00
2018-07-19T08:25:07.743Z,0.00
2018-07-19T08:26:07.732Z,0.00
2018-07-19T08:27:07.721Z,0.00
2018-07-19T08:28:07.711Z,0.00
2018-07-19T08:29:07.731Z,0.00
2018-07-19T08:30:07.688Z,0.00
2018-07-19T08:31:07.677Z,0.00
2018-07-19T08:32:07.666Z,0.00
2018-07-19T08:33:07.656Z,0.00
2018-07-19T08:34:07.644Z,0.00
2018-07-19T08:35:07.835Z,0.00
2018-07-19T08:36:07.663Z,0.00
2018-07-19T08:37:07.612Z,0.00
2018-07-19T08:38:07.604Z,0.00
2018-07-19T08:39:07.591Z,0.00
2018-07-19T08:40:07.579Z,0.00
2018-07-19T08:41:07.569Z,0.00
2018-07-19T08:42:07.563Z,0.00
2018-07-19T08:43:07.547Z,0.00
2018-07-19T08:44:07.540Z,0.00
2018-07-19T08:45:07.525Z,0.00
2018-07-19T08:46:07.512Z,0.00
2018-07-19T08:47:07.502Z,0.00
2018-07-19T08:48:07.491Z,0.00
2018-07-19T08:49:07.481Z,0.00
2018-07-19T08:50:07.468Z,0.00
2018-07-19T08:51:07.458Z,0.00
2018-07-19T08:52:07.448Z,0.00
2018-07-19T08:53:07.437Z,0.00
2018-07-19T08:54:07.426Z,0.00
2018-07-19T08:55:07.416Z,0.00
2018-07-19T08:56:07.403Z,0.00
2018-07-19T08:57:07.393Z,0.00
2018-07-19T08:58:07.380Z,0.00
2018-07-19T08:59:07.370Z,0.00
2018-07-19T09:00:07.358Z,0.00
2018-07-19T09:01:07.348Z,0.00
2018-07-19T09:02:07.336Z,0.00
2018-07-19T09:03:07.325Z,0.00
2018-07-19T09:04:07.314Z,0.00
2018-07-19T09:05:07.304Z,0.00
2018-07-19T09:06:07.292Z,0.00
2018-07-19T09:07:07.281Z,0.00
2018-07-19T09:08:07.270Z,0.00
2018-07-19T09:09:07.259Z,0.00
2018-07-19T09:10:07.248Z,0.00
2018-07-19T09:11:07.237Z,0.00
2018-07-19T09:12:07.225Z,0.00
2018-07-19T09:13:07.218Z,0.00
2018-07-19T09:14:07.244Z,0.00
2018-07-19T09:15:07.195Z,0.00
2018-07-19T09:16:07.182Z,0.00
2018-07-19T09:17:07.170Z,0.00
2018-07-19T09:18:07.160Z,0.00
2018-07-19T09:19:07.148Z,0.00
2018-07-19T09:20:07.139Z,0.00
2018-07-19T09:21:07.127Z,0.00
2018-07-19T09:22:07.114Z,0.00
2018-07-19T09:23:07.103Z,0.00
2018-07-19T09:24:07.094Z,0.00
2018-07-19T09:25:07.081Z,0.00
2018-07-19T09:26:07.069Z,0.00
2018-07-19T09:27:07.058Z,0.00
2018-07-19T09:28:07.050Z,0.00
2018-07-19T09:29:07.037Z,0.00
2018-07-19T09:30:07.025Z,0.00
2018-07-19T09:31:07.015Z,0.00
2018-07-19T09:32:07.005Z,0.00
2018-07-19T09:33:06.991Z,0.00
2018-07-19T09:34:06.982Z,0.00
2018-07-19T09:35:06.969Z,0.00
2018-07-19T09:36:06.958Z,0.00
2018-07-19T09:37:06.948Z,0.00
2018-07-19T09:38:06.936Z,0.00
2018-07-19T09:39:06.925Z,0.00
2018-07-19T09:40:06.913Z,0.00
2018-07-19T09:41:07.104Z,0.00
2018-07-19T09:42:06.890Z,0.00
2018-07-19T09:43:06.880Z,0.00
2018-07-19T09:44:06.873Z,0.00
2018-07-19T09:45:06.858Z,0.00
2018-07-19T09:46:06.847Z,0.00
2018-07-19T09:47:06.837Z,0.00
2018-07-19T09:48:06.824Z,0.00
2018-07-19T09:49:06.814Z,0.00
2018-07-19T09:50:06.801Z,0.00
2018-07-19T09:51:06.793Z,0.00
2018-07-19T09:52:06.779Z,0.00
2018-07-19T09:53:06.772Z,0.00
2018-07-19T09:54:06.757Z,0.00
2018-07-19T09:55:06.746Z,0.00
2018-07-19T09:56:06.736Z,0.00
2018-07-19T09:57:06.724Z,0.00
2018-07-19T09:58:06.713Z,0.00
2018-07-19T09:59:06.702Z,0.00
2018-07-19T10:00:06.692Z,0.00
2018-07-19T10:01:06.680Z,0.00
2018-07-19T10:02:06.668Z,0.00
2018-07-19T10:03:06.657Z,0.00
2018-07-19T10:04:06.646Z,0.00
2018-07-19T10:05:06.636Z,0.00
2018-07-19T10:06:06.623Z,0.00
2018-07-19T10:07:06.620Z,0.00
2018-07-19T10:08:06.604Z,0.00
2018-07-19T10:09:06.591Z,0.00
2018-07-19T10:10:06.625Z,0.00
2018-07-19T10:11:06.668Z,0.00
2018-07-19T10:12:06.615Z,0.00
2018-07-19T10:13:06.547Z,0.00
2018-07-19T10:14:06.535Z,0.00
2018-07-19T10:15:06.524Z,0.00
2018-07-19T10:16:06.516Z,0.00
2018-07-19T10:17:06.502Z,0.00
2018-07-19T10:18:06.491Z,0.00
2018-07-19T10:19:06.479Z,0.00
2018-07-19T10:20:06.470Z,0.00
2018-07-19T10:21:06.460Z,0.00
2018-07-19T10:22:06.446Z,0.00
2018-07-19T10:23:06.437Z,0.00
2018-07-19T10:24:06.425Z,0.00
2018-07-19T10:25:06.416Z,0.00
2018-07-19T10:26:06.401Z,5.63
2018-07-19T10:27:06.391Z,5.63
2018-07-19T10:28:06.381Z,5.63
2018-07-19T10:29:06.371Z,5.63
2018-07-19T10:30:06.379Z,5.63
2018-07-19T10:31:06.347Z,5.63
2018-07-19T10:32:06.420Z,5.63
2018-07-19T10:33:06.325Z,5.63
2018-07-19T10:34:06.321Z,5.63
2018-07-19T10:35:06.302Z,5.63
2018-07-19T10:36:06.291Z,5.63
2018-07-19T10:37:06.284Z,5.63
2018-07-19T10:38:06.269Z,5.63
2018-07-19T10:39:06.261Z,5.63
2018-07-19T10:40:06.248Z,5.63
2018-07-19T10:41:06.237Z,5.63
2018-07-19T10:42:06.226Z,5.63
2018-07-19T10:43:06.278Z,5.63
2018-07-19T10:44:06.203Z,5.63
2018-07-19T10:45:06.193Z,5.63
2018-07-19T10:46:06.188Z,5.63
2018-07-19T10:47:06.177Z,5.63
2018-07-19T10:48:06.163Z,5.63
2018-07-19T10:49:06.151Z,5.63
2018-07-19T10:50:06.137Z,5.63
2018-07-19T10:51:06.127Z,5.63
2018-07-19T10:52:06.116Z,5.63
2018-07-19T10:53:06.305Z,5.63
2018-07-19T10:54:06.094Z,5.63
2018-07-19T10:55:06.083Z,5.63
2018-07-19T10:56:06.076Z,5.63
2018-07-19T10:57:06.063Z,5.63
2018-07-19T10:58:06.052Z,5.63
2018-07-19T10:59:06.040Z,5.63
2018-07-19T11:00:06.030Z,5.63
2018-07-19T11:01:06.019Z,5.63
2018-07-19T11:02:06.029Z,5.63
2018-07-19T11:03:05.999Z,5.63
2018-07-19T11:04:05.987Z,5.63
2018-07-19T11:05:05.976Z,5.63
2018-07-19T11:06:05.969Z,5.63
2018-07-19T11:07:05.954Z,5.63
2018-07-19T11:08:05.946Z,5.63
2018-07-19T11:09:05.933Z,5.63
2018-07-19T11:10:05.940Z,5.63
2018-07-19T11:11:06.112Z,5.63
2018-07-19T11:12:05.901Z,5.63
2018-07-19T11:13:05.891Z,5.63
2018-07-19T11:14:05.880Z,5.63
2018-07-19T11:15:05.870Z,5.63
2018-07-19T11:16:05.868Z,5.63
2018-07-19T11:17:05.856Z,5.63
2018-07-19T11:18:05.838Z,5.63
2018-07-19T11:19:05.831Z,5.63
2018-07-19T11:20:05.817Z,5.63
2018-07-19T11:21:05.807Z,5.63
2018-07-19T11:22:05.797Z,5.63
2018-07-19T11:23:05.786Z,5.63
2018-07-19T11:24:05.776Z,5.63
2018-07-19T11:25:05.772Z,11.25
2018-07-19T11:26:05.756Z,11.25
2018-07-19T11:27:05.746Z,11.25
2018-07-19T11:28:05.740Z,11.25
2018-07-19T11:29:05.934Z,11.25
2018-07-19T11:30:05.715Z,11.25
2018-07-19T11:31:05.709Z,16.88
2018-07-19T11:32:05.711Z,16.88
2018-07-19T11:33:05.697Z,22.50
2018-07-19T11:34:05.682Z,22.50
2018-07-19T11:35:05.675Z,28.13
2018-07-19T11:36:05.655Z,33.75
2018-07-19T11:37:05.649Z,33.75
2018-07-19T11:38:05.633Z,39.38
2018-07-19T11:39:05.632Z,39.38
2018-07-19T11:40:05.616Z,45.00
2018-07-19T11:41:05.608Z,45.00
2018-07-19T11:42:05.595Z,45.00
2018-07-19T11:43:05.591Z,45.00
2018-07-19T11:44:05.578Z,45.00
2018-07-19T11:45:05.576Z,45.00
2018-07-19T11:46:05.561Z,45.00
2018-07-19T11:47:05.549Z,45.00
2018-07-19T11:48:05.539Z,45.00
2018-07-19T11:49:05.530Z,50.63
2018-07-19T11:50:05.524Z,50.63
2018-07-19T11:51:05.513Z,50.63
2018-07-19T11:52:05.503Z,50.63
2018-07-19T11:53:05.496Z,50.63
2018-07-19T11:54:05.495Z,50.63
2018-07-19T11:55:05.486Z,50.63
2018-07-19T11:56:05.473Z,50.63
2018-07-19T11:57:05.465Z,50.63
2018-07-19T11:58:05.465Z,50.63
2018-07-19T11:59:05.450Z,50.63
2018-07-19T12:00:05.443Z,50.63
2018-07-19T12:01:05.431Z,56.25
2018-07-19T12:02:05.418Z,56.25
2018-07-19T12:03:05.415Z,56.25
2018-07-19T12:04:05.402Z,56.25
2018-07-19T12:05:05.396Z,56.25
2018-07-19T12:06:05.393Z,56.25
2018-07-19T12:07:05.380Z,56.25
2018-07-19T12:08:05.372Z,56.25
2018-07-19T12:09:05.365Z,61.88
2018-07-19T12:10:05.358Z,61.88
2018-07-19T12:11:05.348Z,61.88
2018-07-19T12:12:05.341Z,61.88
2018-07-19T12:13:05.334Z,61.88
2018-07-19T12:14:05.329Z,61.88
2018-07-19T12:15:05.319Z,61.88
2018-07-19T12:16:05.311Z,61.88
2018-07-19T12:17:05.305Z,61.88
2018-07-19T12:18:05.344Z,61.88
2018-07-19T12:19:05.290Z,61.88
2018-07-19T12:20:05.289Z,61.88
2018-07-19T12:21:05.276Z,61.88
2018-07-19T12:22:05.273Z,61.88
2018-07-19T12:23:05.264Z,61.88
2018-07-19T12:24:05.255Z,61.88
2018-07-19T12:25:05.248Z,61.88
2018-07-19T12:26:05.240Z,61.88
2018-07-19T12:27:05.235Z,61.88
2018-07-19T12:28:05.230Z,61.88
2018-07-19T12:29:05.221Z,61.88
2018-07-19T12:30:05.218Z,61.88
2018-07-19T12:31:05.207Z,61.88
2018-07-19T12:32:05.202Z,61.88
2018-07-19T12:33:05.205Z,61.88
2018-07-19T12:34:05.202Z,61.88
2018-07-19T12:35:05.186Z,61.88
2018-07-19T12:36:05.176Z,61.88
2018-07-19T12:37:05.174Z,61.88
2018-07-19T12:38:05.162Z,67.50
2018-07-19T12:39:05.158Z,61.88
2018-07-19T12:40:05.152Z,61.88
2018-07-19T12:41:05.146Z,67.50
2018-07-19T12:42:05.137Z,67.50
2018-07-19T12:43:05.131Z,61.88
2018-07-19T12:44:05.125Z,61.88
2018-07-19T12:45:05.131Z,61.88
2018-07-19T12:46:05.124Z,61.88
2018-07-19T12:47:05.117Z,56.25
2018-07-19T12:48:05.117Z,61.88
2018-07-19T12:49:05.104Z,67.50
2018-07-19T12:50:05.097Z,56.25
2018-07-19T12:51:05.091Z,56.25
2018-07-19T12:52:05.145Z,56.25
2018-07-19T12:53:05.079Z,56.25
2018-07-19T12:54:05.073Z,56.25
2018-07-19T12:55:05.068Z,56.25
2018-07-19T12:56:05.061Z,56.25
2018-07-19T12:57:05.072Z,56.25
2018-07-19T12:58:05.048Z,56.25
2018-07-19T12:59:05.045Z,56.25
2018-07-19T13:00:05.037Z,56.25
2018-07-19T13:01:05.031Z,56.25
2018-07-19T13:02:05.035Z,56.25
2018-07-19T13:03:05.018Z,56.25
2018-07-19T13:04:05.013Z,56.25
2018-07-19T13:05:05.008Z,56.25
2018-07-19T13:06:05.002Z,61.88
2018-07-19T13:07:04.997Z,61.88
2018-07-19T13:08:05.015Z,61.88
2018-07-19T13:09:04.983Z,61.88
2018-07-19T13:10:04.977Z,61.88
2018-07-19T13:11:04.971Z,61.88
2018-07-19T13:12:04.966Z,56.25
2018-07-19T13:13:04.961Z,56.25
2018-07-19T13:14:04.954Z,56.25